Oscar, Louisiana
Current Conditions -  °F | °C
As of 11:55 AM on Saturday 20 Dec 2014 (Local Time) from KHZR Reporting Station
Overcast Overcast  
Wind Chill: 46°   Ceiling: 600
Heat Index: 49°   Visibility: 10mi
Dew Point: 47°   Wind: 7mph
Humidity: 92%   Direction: 20°NNE
Pressure: 30.18"   Gusts: NA
Location:  30.61°N, 91.46°W
Report Text: KHZR 201755Z AUTO 02006KT 10SM OVC006 10/08 A3018 RMK AO2 T00960084 10096 20085
Loading
Personal Weather Stations






























Interactive Weather Map New forecast layout! Learn more

10-Day Weather Forecast

Advertisements
Track Severe Weather on mobile